Markleeville, CA (96120)

10:10 AM PDT on August 20, 2014 (GMT -0700)
Country Club Heights | Change Station
CLOSE
Current Station
Personal Weather Station
Location: South Lake Tahoe, CA
Elevation: 6500 ft
Nearby Weather Stations

Elev 6500 ft 38.86 °N, 120.01 °W | Updated 4 seconds ago

Clear
Clear
64.7 °F
Feels Like 64.7 °F
N
2.0
Wind Variable Wind from WSW
Gusts 2.0 mph

Today
High -- | Low -- °F
--% Chance of Precip.
Yesterday
High -- | Low -- °F
Precip. -- in
6:17 AM 7:46 PM
Waning Crescent, 20% visible
Pressure 29.92 in
Visibility 10.0 miles
Clouds Clear
Dew Point 42 °F
Humidity 44%
Rainfall 0.00 in
Snow Depth 0 in , 0 in , 0 in
UV 3.9 out of 12
Pollen 6.70 out of 12
Air Quality Not available.
Flu Activity Not available.
METAR KTVL 201653Z AUTO 00000KT 10SM CLR 21/02 A3010 RMK AO2 SLP130 T02110017

More Conditions Fewer Conditions

Pressure 29.92 in
Visibility 10.0 miles
Clouds Clear
Dew Point 42 °F
Humidity 44%
Rainfall 0.00 in
Snow Depth 0 in , 0 in , 0 in
UV 3.9 out of 12
Pollen 6.70 out of 12
Air Quality Not available.
Flu Activity Not available.
METAR KTVL 201653Z AUTO 00000KT 10SM CLR 21/02 A3010 RMK AO2 SLP130 T02110017

More Conditions Fewer Conditions

10-Day Weather Forecast

Almanac

Astronomy

Aug. 20, 2014 Rise Set
Actual Time 6:17 AM PDT 7:46 PM PDT
Civil Twilight 5:49 AM PDT 8:14 PM PDT
Nautical Twilight 5:16 AM PDT 8:48 PM PDT
Astronomical Twilight 4:40 AM PDT 9:23 PM PDT
Moon 2:02 AM PDT 4:34 PM PDT
Length of Visible Light 14h 25m
Length of Day
13h 29m
Tomorrow will be 2m 18s shorter.
Waning Crescent, 20% of the Moon is Illuminated
Today
Waning Crescent
Aug 25
New
Sep 2
First Quarter
Sep 8
Full
Sep 15
Last Quarter

Today's Extremes

State Highs State Lows

Community

WunderPhotos

Upload Photos

1,745,694 photos uploaded!

WunderBlogs® & News

By Dr. Jeff Masters
Director of Meteorology, Weather Underground
By Kari Strenfel
Meteorologist, Weather Underground
By Christopher C. Burt
Weather Historian, Weather Underground
August 20, 2014
August 20, 2014
August 20, 2014

Nearby

Snow Depth

Station Depth Elevation
Forestdale Creek 0 in 8029 ft
Hagan's Meadow 0 in 8000 ft
Blue Lakes 0 in 8000 ft
Monitor Pass 0 in 8350 ft
Ebbetts Pass 0 in 8700 ft

Earthquake Activity

City Distance Mag. Time & Date
Mariposa, California 92 miles 2.5 4:54 AM PDT
2014-08-14
Mariposa, California 94 miles 2.7 3:31 AM PDT
2014-08-14
Minimum magnitude displayed is 2.5.

Coastal Water Temperatures

Place Temperature
No Stations Reporting

Nearby Weather Stations